sensor_id;sensor_type;location;lat;lon;timestamp;temperature;humidity
2459;DHT22;1241;50.920;6.936;2022-12-11T00:00:47;2.70;99.90
2459;DHT22;1241;50.920;6.936;2022-12-11T00:03:15;2.70;99.90
2459;DHT22;1241;50.920;6.936;2022-12-11T00:05:42;2.80;99.90
2459;DHT22;1241;50.920;6.936;2022-12-11T00:08:08;2.70;99.90
2459;DHT22;1241;50.920;6.936;2022-12-11T00:10:34;2.70;99.90
2459;DHT22;1241;50.920;6.936;2022-12-11T00:12:59;2.60;99.90
2459;DHT22;1241;50.920;6.936;2022-12-11T00:15:25;2.50;99.90
2459;DHT22;1241;50.920;6.936;2022-12-11T00:17:51;2.40;99.90
2459;DHT22;1241;50.920;6.936;2022-12-11T00:20:16;2.40;99.90
2459;DHT22;1241;50.920;6.936;2022-12-11T00:22:42;2.40;99.90
2459;DHT22;1241;50.920;6.936;2022-12-11T00:25:08;2.50;99.90
2459;DHT22;1241;50.920;6.936;2022-12-11T00:27:34;2.50;99.90
2459;DHT22;1241;50.920;6.936;2022-12-11T00:30:00;2.50;99.90
2459;DHT22;1241;50.920;6.936;2022-12-11T00:32:26;2.60;99.90
2459;DHT22;1241;50.920;6.936;2022-12-11T00:34:52;2.50;99.90
2459;DHT22;1241;50.920;6.936;2022-12-11T00:37:17;2.60;99.90
2459;DHT22;1241;50.920;6.936;2022-12-11T00:39:43;2.50;99.90
2459;DHT22;1241;50.920;6.936;2022-12-11T00:42:10;2.70;99.90
2459;DHT22;1241;50.920;6.936;2022-12-11T00:44:35;2.70;99.90
2459;DHT22;1241;50.920;6.936;2022-12-11T00:47:01;2.70;99.90
2459;DHT22;1241;50.920;6.936;2022-12-11T00:49:27;2.70;99.90
2459;DHT22;1241;50.920;6.936;2022-12-11T00:51:53;2.60;99.90
2459;DHT22;1241;50.920;6.936;2022-12-11T00:54:19;2.60;99.90
2459;DHT22;1241;50.920;6.936;2022-12-11T00:56:44;2.60;99.90
2459;DHT22;1241;50.920;6.936;2022-12-11T00:59:10;2.70;99.90
2459;DHT22;1241;50.920;6.936;2022-12-11T01:01:36;2.60;99.90
2459;DHT22;1241;50.920;6.936;2022-12-11T01:04:01;2.70;99.90
2459;DHT22;1241;50.920;6.936;2022-12-11T01:06:27;2.70;99.90
2459;DHT22;1241;50.920;6.936;2022-12-11T01:08:54;2.70;99.90
2459;DHT22;1241;50.920;6.936;2022-12-11T01:11:40;2.70;99.90
2459;DHT22;1241;50.920;6.936;2022-12-11T01:14:07;2.70;99.90
2459;DHT22;1241;50.920;6.936;2022-12-11T01:16:33;2.70;99.90
2459;DHT22;1241;50.920;6.936;2022-12-11T01:18:59;2.70;99.90
2459;DHT22;1241;50.920;6.936;2022-12-11T01:21:25;2.60;99.90
2459;DHT22;1241;50.920;6.936;2022-12-11T01:23:51;2.60;99.90
2459;DHT22;1241;50.920;6.936;2022-12-11T01:26:17;2.50;99.90
2459;DHT22;1241;50.920;6.936;2022-12-11T01:28:43;2.60;99.90
2459;DHT22;1241;50.920;6.936;2022-12-11T01:31:10;2.60;99.90
2459;DHT22;1241;50.920;6.936;2022-12-11T01:33:37;2.60;99.90
2459;DHT22;1241;50.920;6.936;2022-12-11T01:36:22;2.60;99.90
2459;DHT22;1241;50.920;6.936;2022-12-11T01:38:49;2.60;99.90
2459;DHT22;1241;50.920;6.936;2022-12-11T01:41:16;2.60;99.90
2459;DHT22;1241;50.920;6.936;2022-12-11T01:46:29;2.60;99.90
2459;DHT22;1241;50.920;6.936;2022-12-11T01:48:56;2.50;99.90
2459;DHT22;1241;50.920;6.936;2022-12-11T01:51:23;2.50;99.90
2459;DHT22;1241;50.920;6.936;2022-12-11T01:53:53;2.50;99.90
2459;DHT22;1241;50.920;6.936;2022-12-11T01:56:20;2.50;99.90
2459;DHT22;1241;50.920;6.936;2022-12-11T01:58:49;2.50;99.90
2459;DHT22;1241;50.920;6.936;2022-12-11T02:01:24;2.50;99.90
2459;DHT22;1241;50.920;6.936;2022-12-11T02:03:52;2.50;99.90
2459;DHT22;1241;50.920;6.936;2022-12-11T02:09:03;2.60;99.90
2459;DHT22;1241;50.920;6.936;2022-12-11T02:17:10;2.70;99.90
2459;DHT22;1241;50.920;6.936;2022-12-11T02:25:30;2.70;99.90
2459;DHT22;1241;50.920;6.936;2022-12-11T02:31:03;2.60;99.90
2459;DHT22;1241;50.920;6.936;2022-12-11T02:33:43;2.60;99.90
2459;DHT22;1241;50.920;6.936;2022-12-11T02:36:11;2.60;99.90
2459;DHT22;1241;50.920;6.936;2022-12-11T02:38:40;2.70;99.90
2459;DHT22;1241;50.920;6.936;2022-12-11T02:41:09;2.60;99.90
2459;DHT22;1241;50.920;6.936;2022-12-11T02:43:37;2.70;99.90
2459;DHT22;1241;50.920;6.936;2022-12-11T02:46:05;2.80;99.90
2459;DHT22;1241;50.920;6.936;2022-12-11T02:48:33;2.80;99.90
2459;DHT22;1241;50.920;6.936;2022-12-11T02:51:00;2.60;99.90
2459;DHT22;1241;50.920;6.936;2022-12-11T02:53:29;2.50;99.90
2459;DHT22;1241;50.920;6.936;2022-12-11T02:56:07;2.50;99.90
2459;DHT22;1241;50.920;6.936;2022-12-11T02:58:36;2.60;99.90
2459;DHT22;1241;50.920;6.936;2022-12-11T03:01:04;2.60;99.90
2459;DHT22;1241;50.920;6.936;2022-12-11T03:03:30;2.60;99.90
2459;DHT22;1241;50.920;6.936;2022-12-11T03:05:56;2.60;99.90
2459;DHT22;1241;50.920;6.936;2022-12-11T03:08:21;2.50;99.90
2459;DHT22;1241;50.920;6.936;2022-12-11T03:10:47;2.50;99.90
2459;DHT22;1241;50.920;6.936;2022-12-11T03:13:16;2.60;99.90
2459;DHT22;1241;50.920;6.936;2022-12-11T03:21:42;2.70;99.90
2459;DHT22;1241;50.920;6.936;2022-12-11T03:24:17;2.70;99.90
2459;DHT22;1241;50.920;6.936;2022-12-11T03:26:54;2.70;99.90
2459;DHT22;1241;50.920;6.936;2022-12-11T03:29:45;2.70;99.90
2459;DHT22;1241;50.920;6.936;2022-12-11T03:32:20;2.60;99.90
2459;DHT22;1241;50.920;6.936;2022-12-11T03:34:56;2.60;99.90
2459;DHT22;1241;50.920;6.936;2022-12-11T03:37:24;2.70;99.90
2459;DHT22;1241;50.920;6.936;2022-12-11T03:39:57;2.70;99.90
2459;DHT22;1241;50.920;6.936;2022-12-11T03:42:24;2.80;99.90
2459;DHT22;1241;50.920;6.936;2022-12-11T03:44:53;2.80;99.90
2459;DHT22;1241;50.920;6.936;2022-12-11T03:47:23;2.80;99.90
2459;DHT22;1241;50.920;6.936;2022-12-11T03:49:51;2.90;99.90
2459;DHT22;1241;50.920;6.936;2022-12-11T03:52:18;2.90;99.90
2459;DHT22;1241;50.920;6.936;2022-12-11T03:54:46;3.00;99.90
2459;DHT22;1241;50.920;6.936;2022-12-11T03:57:17;3.00;99.90
2459;DHT22;1241;50.920;6.936;2022-12-11T03:59:43;2.90;99.90
2459;DHT22;1241;50.920;6.936;2022-12-11T04:02:09;3.00;99.90
2459;DHT22;1241;50.920;6.936;2022-12-11T04:04:39;2.90;99.90
2459;DHT22;1241;50.920;6.936;2022-12-11T04:07:06;3.00;99.90
2459;DHT22;1241;50.920;6.936;2022-12-11T04:09:32;3.00;99.90
2459;DHT22;1241;50.920;6.936;2022-12-11T04:11:58;3.00;99.90
2459;DHT22;1241;50.920;6.936;2022-12-11T04:14:24;3.00;99.90
2459;DHT22;1241;50.920;6.936;2022-12-11T04:17:09;2.90;99.90
2459;DHT22;1241;50.920;6.936;2022-12-11T04:19:35;2.90;99.90
2459;DHT22;1241;50.920;6.936;2022-12-11T04:22:30;2.90;99.90
2459;DHT22;1241;50.920;6.936;2022-12-11T04:25:14;3.00;99.90
2459;DHT22;1241;50.920;6.936;2022-12-11T04:27:40;3.00;99.90
2459;DHT22;1241;50.920;6.936;2022-12-11T04:30:17;3.00;99.90
2459;DHT22;1241;50.920;6.936;2022-12-11T04:32:44;2.90;99.90
2459;DHT22;1241;50.920;6.936;2022-12-11T04:35:11;3.00;99.90
2459;DHT22;1241;50.920;6.936;2022-12-11T04:37:37;3.00;99.90
2459;DHT22;1241;50.920;6.936;2022-12-11T04:40:04;3.00;99.90
2459;DHT22;1241;50.920;6.936;2022-12-11T04:42:31;3.00;99.90
2459;DHT22;1241;50.920;6.936;2022-12-11T04:44:56;3.00;99.90
2459;DHT22;1241;50.920;6.936;2022-12-11T04:47:22;3.10;99.90
2459;DHT22;1241;50.920;6.936;2022-12-11T04:49:48;3.00;99.90
2459;DHT22;1241;50.920;6.936;2022-12-11T04:52:14;3.10;99.90
2459;DHT22;1241;50.920;6.936;2022-12-11T04:54:39;3.00;99.90
2459;DHT22;1241;50.920;6.936;2022-12-11T04:57:05;3.00;99.90
2459;DHT22;1241;50.920;6.936;2022-12-11T04:59:32;3.10;99.90
2459;DHT22;1241;50.920;6.936;2022-12-11T05:01:58;3.10;99.90
2459;DHT22;1241;50.920;6.936;2022-12-11T05:04:24;3.10;99.90
2459;DHT22;1241;50.920;6.936;2022-12-11T05:06:50;3.10;99.90
2459;DHT22;1241;50.920;6.936;2022-12-11T05:09:16;3.20;99.90
2459;DHT22;1241;50.920;6.936;2022-12-11T05:11:42;3.20;99.90
2459;DHT22;1241;50.920;6.936;2022-12-11T05:14:08;3.20;99.90
2459;DHT22;1241;50.920;6.936;2022-12-11T05:16:34;3.20;99.90
2459;DHT22;1241;50.920;6.936;2022-12-11T05:18:59;3.20;99.90
2459;DHT22;1241;50.920;6.936;2022-12-11T05:21:25;3.20;99.90
2459;DHT22;1241;50.920;6.936;2022-12-11T05:23:50;3.20;99.90
2459;DHT22;1241;50.920;6.936;2022-12-11T05:26:18;3.20;99.90
2459;DHT22;1241;50.920;6.936;2022-12-11T05:28:45;3.30;99.90
2459;DHT22;1241;50.920;6.936;2022-12-11T05:31:17;3.20;99.90
2459;DHT22;1241;50.920;6.936;2022-12-11T05:33:44;3.20;99.90
2459;DHT22;1241;50.920;6.936;2022-12-11T05:36:15;3.20;99.90
2459;DHT22;1241;50.920;6.936;2022-12-11T05:38:41;3.10;99.90
2459;DHT22;1241;50.920;6.936;2022-12-11T05:41:07;3.10;99.90
2459;DHT22;1241;50.920;6.936;2022-12-11T05:43:35;3.10;99.90
2459;DHT22;1241;50.920;6.936;2022-12-11T05:48:34;3.00;99.90
2459;DHT22;1241;50.920;6.936;2022-12-11T05:51:02;3.00;99.90
2459;DHT22;1241;50.920;6.936;2022-12-11T05:53:28;3.00;99.90
2459;DHT22;1241;50.920;6.936;2022-12-11T05:55:59;3.00;99.90
2459;DHT22;1241;50.920;6.936;2022-12-11T05:58:25;3.00;99.90
2459;DHT22;1241;50.920;6.936;2022-12-11T06:00:50;3.00;99.90
2459;DHT22;1241;50.920;6.936;2022-12-11T06:03:16;3.00;99.90
2459;DHT22;1241;50.920;6.936;2022-12-11T06:05:42;3.00;99.90
2459;DHT22;1241;50.920;6.936;2022-12-11T06:08:08;3.10;99.90
2459;DHT22;1241;50.920;6.936;2022-12-11T06:10:34;3.10;99.90
2459;DHT22;1241;50.920;6.936;2022-12-11T06:13:00;3.10;99.90
2459;DHT22;1241;50.920;6.936;2022-12-11T06:15:26;3.10;99.90
2459;DHT22;1241;50.920;6.936;2022-12-11T06:17:52;3.00;99.90
2459;DHT22;1241;50.920;6.936;2022-12-11T06:20:18;2.90;99.90
2459;DHT22;1241;50.920;6.936;2022-12-11T06:22:43;3.00;99.90
2459;DHT22;1241;50.920;6.936;2022-12-11T06:25:09;3.10;99.90
2459;DHT22;1241;50.920;6.936;2022-12-11T06:27:35;3.10;99.90
2459;DHT22;1241;50.920;6.936;2022-12-11T06:30:00;3.00;99.90
2459;DHT22;1241;50.920;6.936;2022-12-11T06:32:26;3.10;99.90
2459;DHT22;1241;50.920;6.936;2022-12-11T06:34:52;3.20;99.90
2459;DHT22;1241;50.920;6.936;2022-12-11T06:37:17;3.20;99.90
2459;DHT22;1241;50.920;6.936;2022-12-11T06:39:43;3.30;99.90
2459;DHT22;1241;50.920;6.936;2022-12-11T06:42:09;3.20;99.90
2459;DHT22;1241;50.920;6.936;2022-12-11T06:44:35;3.30;99.90
2459;DHT22;1241;50.920;6.936;2022-12-11T06:47:02;3.30;99.90
2459;DHT22;1241;50.920;6.936;2022-12-11T06:49:27;3.30;99.90
2459;DHT22;1241;50.920;6.936;2022-12-11T06:51:53;3.30;99.90
2459;DHT22;1241;50.920;6.936;2022-12-11T06:54:18;3.30;99.90
2459;DHT22;1241;50.920;6.936;2022-12-11T06:56:44;3.30;99.90
2459;DHT22;1241;50.920;6.936;2022-12-11T06:59:11;3.30;99.90
2459;DHT22;1241;50.920;6.936;2022-12-11T07:01:37;3.30;99.90
2459;DHT22;1241;50.920;6.936;2022-12-11T07:04:02;3.20;99.90
2459;DHT22;1241;50.920;6.936;2022-12-11T07:06:28;3.20;99.90
2459;DHT22;1241;50.920;6.936;2022-12-11T07:08:55;3.10;99.90
2459;DHT22;1241;50.920;6.936;2022-12-11T07:11:21;3.10;99.90
2459;DHT22;1241;50.920;6.936;2022-12-11T07:13:47;3.10;99.90
2459;DHT22;1241;50.920;6.936;2022-12-11T07:16:15;3.10;99.90
2459;DHT22;1241;50.920;6.936;2022-12-11T07:18:44;3.00;99.90
2459;DHT22;1241;50.920;6.936;2022-12-11T07:21:12;3.10;99.90
2459;DHT22;1241;50.920;6.936;2022-12-11T07:23:39;3.10;99.90
2459;DHT22;1241;50.920;6.936;2022-12-11T07:26:07;3.10;99.90
2459;DHT22;1241;50.920;6.936;2022-12-11T07:28:33;3.10;99.90
2459;DHT22;1241;50.920;6.936;2022-12-11T07:31:04;3.20;99.90
2459;DHT22;1241;50.920;6.936;2022-12-11T07:33:30;3.10;99.90
2459;DHT22;1241;50.920;6.936;2022-12-11T07:35:55;3.10;99.90
2459;DHT22;1241;50.920;6.936;2022-12-11T07:38:24;3.10;99.90
2459;DHT22;1241;50.920;6.936;2022-12-11T07:40:50;3.10;99.90
2459;DHT22;1241;50.920;6.936;2022-12-11T07:43:15;3.10;99.90
2459;DHT22;1241;50.920;6.936;2022-12-11T07:45:41;3.10;99.90
2459;DHT22;1241;50.920;6.936;2022-12-11T07:48:07;3.10;99.90
2459;DHT22;1241;50.920;6.936;2022-12-11T07:50:33;3.10;99.90
2459;DHT22;1241;50.920;6.936;2022-12-11T07:52:58;3.10;99.90
2459;DHT22;1241;50.920;6.936;2022-12-11T07:55:24;3.00;99.90
2459;DHT22;1241;50.920;6.936;2022-12-11T07:57:50;3.00;99.90
2459;DHT22;1241;50.920;6.936;2022-12-11T08:00:16;3.00;99.90
2459;DHT22;1241;50.920;6.936;2022-12-11T08:02:41;3.10;99.90
2459;DHT22;1241;50.920;6.936;2022-12-11T08:05:07;3.10;99.90
2459;DHT22;1241;50.920;6.936;2022-12-11T08:07:34;3.20;99.90
2459;DHT22;1241;50.920;6.936;2022-12-11T08:10:00;3.20;99.90
2459;DHT22;1241;50.920;6.936;2022-12-11T08:12:26;3.10;99.90
2459;DHT22;1241;50.920;6.936;2022-12-11T08:14:52;3.10;99.90
2459;DHT22;1241;50.920;6.936;2022-12-11T08:17:17;3.10;99.90
2459;DHT22;1241;50.920;6.936;2022-12-11T08:19:43;3.20;99.90
2459;DHT22;1241;50.920;6.936;2022-12-11T08:22:09;3.20;99.90
2459;DHT22;1241;50.920;6.936;2022-12-11T08:24:35;3.20;99.90
2459;DHT22;1241;50.920;6.936;2022-12-11T08:27:00;3.20;99.90
2459;DHT22;1241;50.920;6.936;2022-12-11T08:29:26;3.20;99.90
2459;DHT22;1241;50.920;6.936;2022-12-11T08:31:52;3.20;99.90
2459;DHT22;1241;50.920;6.936;2022-12-11T08:34:17;3.40;99.90
2459;DHT22;1241;50.920;6.936;2022-12-11T08:36:43;3.40;99.90
2459;DHT22;1241;50.920;6.936;2022-12-11T08:39:09;3.50;99.90
2459;DHT22;1241;50.920;6.936;2022-12-11T08:41:34;3.60;99.90
2459;DHT22;1241;50.920;6.936;2022-12-11T08:44:00;3.50;99.90
2459;DHT22;1241;50.920;6.936;2022-12-11T08:46:31;3.50;99.90
2459;DHT22;1241;50.920;6.936;2022-12-11T08:48:57;3.50;99.90
2459;DHT22;1241;50.920;6.936;2022-12-11T08:51:25;3.60;99.90
2459;DHT22;1241;50.920;6.936;2022-12-11T08:53:54;3.70;99.90
2459;DHT22;1241;50.920;6.936;2022-12-11T08:56:20;3.80;99.90
2459;DHT22;1241;50.920;6.936;2022-12-11T08:58:48;3.90;99.90
2459;DHT22;1241;50.920;6.936;2022-12-11T09:01:16;3.90;99.90
2459;DHT22;1241;50.920;6.936;2022-12-11T09:03:43;3.90;99.90
2459;DHT22;1241;50.920;6.936;2022-12-11T09:06:12;3.90;99.90
2459;DHT22;1241;50.920;6.936;2022-12-11T09:08:38;4.00;99.90
2459;DHT22;1241;50.920;6.936;2022-12-11T09:11:06;4.00;99.90
2459;DHT22;1241;50.920;6.936;2022-12-11T09:13:32;4.00;99.90
2459;DHT22;1241;50.920;6.936;2022-12-11T09:15:58;4.10;99.90
2459;DHT22;1241;50.920;6.936;2022-12-11T09:18:24;4.10;99.90
2459;DHT22;1241;50.920;6.936;2022-12-11T09:21:04;4.10;99.90
2459;DHT22;1241;50.920;6.936;2022-12-11T09:23:30;4.10;99.90
2459;DHT22;1241;50.920;6.936;2022-12-11T09:25:56;4.10;99.90
2459;DHT22;1241;50.920;6.936;2022-12-11T09:28:22;4.10;99.90
2459;DHT22;1241;50.920;6.936;2022-12-11T09:30:48;4.10;99.90
2459;DHT22;1241;50.920;6.936;2022-12-11T09:33:14;4.10;99.90
2459;DHT22;1241;50.920;6.936;2022-12-11T09:35:40;4.10;99.90
2459;DHT22;1241;50.920;6.936;2022-12-11T09:38:06;4.10;99.90
2459;DHT22;1241;50.920;6.936;2022-12-11T09:40:32;4.10;99.90
2459;DHT22;1241;50.920;6.936;2022-12-11T09:45:54;4.10;99.90
2459;DHT22;1241;50.920;6.936;2022-12-11T09:48:23;4.10;99.90
2459;DHT22;1241;50.920;6.936;2022-12-11T09:50:52;4.00;99.90
2459;DHT22;1241;50.920;6.936;2022-12-11T09:53:29;4.20;99.90
2459;DHT22;1241;50.920;6.936;2022-12-11T09:56:15;4.30;99.90
2459;DHT22;1241;50.920;6.936;2022-12-11T10:02:09;4.10;99.90
2459;DHT22;1241;50.920;6.936;2022-12-11T10:05:03;4.10;99.90
2459;DHT22;1241;50.920;6.936;2022-12-11T10:07:40;4.10;99.90
2459;DHT22;1241;50.920;6.936;2022-12-11T10:18:21;4.20;99.90
2459;DHT22;1241;50.920;6.936;2022-12-11T10:20:49;4.20;99.90
2459;DHT22;1241;50.920;6.936;2022-12-11T10:23:30;4.20;99.90
2459;DHT22;1241;50.920;6.936;2022-12-11T10:26:16;4.20;99.90
2459;DHT22;1241;50.920;6.936;2022-12-11T10:28:43;4.20;99.90
2459;DHT22;1241;50.920;6.936;2022-12-11T10:36:54;3.90;99.90
2459;DHT22;1241;50.920;6.936;2022-12-11T10:39:21;3.90;99.90
2459;DHT22;1241;50.920;6.936;2022-12-11T10:41:49;3.90;99.90
2459;DHT22;1241;50.920;6.936;2022-12-11T10:47:17;4.10;99.90
2459;DHT22;1241;50.920;6.936;2022-12-11T10:49:56;4.10;99.90
2459;DHT22;1241;50.920;6.936;2022-12-11T10:52:30;4.10;99.90
2459;DHT22;1241;50.920;6.936;2022-12-11T10:55:03;4.20;99.90
2459;DHT22;1241;50.920;6.936;2022-12-11T10:57:35;4.00;99.90
2459;DHT22;1241;50.920;6.936;2022-12-11T11:00:04;4.00;99.90
2459;DHT22;1241;50.920;6.936;2022-12-11T11:02:34;4.00;99.90
2459;DHT22;1241;50.920;6.936;2022-12-11T11:05:14;3.90;99.90
2459;DHT22;1241;50.920;6.936;2022-12-11T11:07:40;3.90;99.90
2459;DHT22;1241;50.920;6.936;2022-12-11T11:10:16;3.90;99.90
2459;DHT22;1241;50.920;6.936;2022-12-11T11:12:47;3.90;99.90
2459;DHT22;1241;50.920;6.936;2022-12-11T11:15:27;3.90;99.90
2459;DHT22;1241;50.920;6.936;2022-12-11T11:17:55;3.80;99.90
2459;DHT22;1241;50.920;6.936;2022-12-11T11:20:26;3.80;99.90
2459;DHT22;1241;50.920;6.936;2022-12-11T11:22:59;3.90;99.90
2459;DHT22;1241;50.920;6.936;2022-12-11T11:25:27;3.90;99.90
2459;DHT22;1241;50.920;6.936;2022-12-11T11:27:59;3.90;99.90
2459;DHT22;1241;50.920;6.936;2022-12-11T11:30:28;3.90;99.90
2459;DHT22;1241;50.920;6.936;2022-12-11T11:33:02;3.90;99.90
2459;DHT22;1241;50.920;6.936;2022-12-11T11:35:30;4.00;99.90
2459;DHT22;1241;50.920;6.936;2022-12-11T11:38:12;4.10;99.90
2459;DHT22;1241;50.920;6.936;2022-12-11T11:45:57;3.90;99.90
2459;DHT22;1241;50.920;6.936;2022-12-11T11:48:48;4.00;99.90
2459;DHT22;1241;50.920;6.936;2022-12-11T11:51:22;4.10;99.90
2459;DHT22;1241;50.920;6.936;2022-12-11T11:53:50;4.00;99.90
2459;DHT22;1241;50.920;6.936;2022-12-11T11:56:25;4.00;99.90
2459;DHT22;1241;50.920;6.936;2022-12-11T12:01:25;4.10;99.90
2459;DHT22;1241;50.920;6.936;2022-12-11T12:03:51;4.10;99.90
2459;DHT22;1241;50.920;6.936;2022-12-11T12:06:56;4.10;99.90
2459;DHT22;1241;50.920;6.936;2022-12-11T12:17:57;4.10;99.90
2459;DHT22;1241;50.920;6.936;2022-12-11T12:20:45;4.00;99.90
2459;DHT22;1241;50.920;6.936;2022-12-11T12:31:31;4.00;99.90
2459;DHT22;1241;50.920;6.936;2022-12-11T12:34:32;3.90;99.90
2459;DHT22;1241;50.920;6.936;2022-12-11T12:40:09;3.70;99.90
2459;DHT22;1241;50.920;6.936;2022-12-11T12:42:58;3.60;99.90
2459;DHT22;1241;50.920;6.936;2022-12-11T12:45:27;3.50;99.90
2459;DHT22;1241;50.920;6.936;2022-12-11T12:47:54;3.50;99.90
2459;DHT22;1241;50.920;6.936;2022-12-11T12:50:27;3.40;99.90
2459;DHT22;1241;50.920;6.936;2022-12-11T12:52:54;3.40;99.90
2459;DHT22;1241;50.920;6.936;2022-12-11T12:55:25;3.40;99.90
2459;DHT22;1241;50.920;6.936;2022-12-11T12:58:00;3.40;99.90
2459;DHT22;1241;50.920;6.936;2022-12-11T13:03:16;3.20;99.90
2459;DHT22;1241;50.920;6.936;2022-12-11T13:05:58;3.20;99.90
2459;DHT22;1241;50.920;6.936;2022-12-11T13:11:11;3.50;99.90
2459;DHT22;1241;50.920;6.936;2022-12-11T13:14:02;3.70;99.90
2459;DHT22;1241;50.920;6.936;2022-12-11T13:16:37;3.90;99.90
2459;DHT22;1241;50.920;6.936;2022-12-11T13:24:58;3.80;99.90
2459;DHT22;1241;50.920;6.936;2022-12-11T13:32:40;3.60;99.90
2459;DHT22;1241;50.920;6.936;2022-12-11T13:35:14;3.60;99.90
2459;DHT22;1241;50.920;6.936;2022-12-11T13:37:42;3.60;99.90
2459;DHT22;1241;50.920;6.936;2022-12-11T13:40:27;3.50;99.90
2459;DHT22;1241;50.920;6.936;2022-12-11T13:43:18;3.50;99.90
2459;DHT22;1241;50.920;6.936;2022-12-11T13:45:48;3.40;99.90
2459;DHT22;1241;50.920;6.936;2022-12-11T13:49:06;3.50;99.90
2459;DHT22;1241;50.920;6.936;2022-12-11T13:51:15;3.50;99.90
2459;DHT22;1241;50.920;6.936;2022-12-11T13:53:41;3.50;99.90
2459;DHT22;1241;50.920;6.936;2022-12-11T13:56:16;3.60;99.90
2459;DHT22;1241;50.920;6.936;2022-12-11T13:58:42;3.60;99.90
2459;DHT22;1241;50.920;6.936;2022-12-11T14:01:15;3.60;99.90
2459;DHT22;1241;50.920;6.936;2022-12-11T14:03:54;3.50;99.90
2459;DHT22;1241;50.920;6.936;2022-12-11T14:06:21;3.60;99.90
2459;DHT22;1241;50.920;6.936;2022-12-11T14:08:49;3.50;99.90
2459;DHT22;1241;50.920;6.936;2022-12-11T14:11:42;3.60;99.90
2459;DHT22;1241;50.920;6.936;2022-12-11T14:14:21;3.80;99.90
2459;DHT22;1241;50.920;6.936;2022-12-11T14:16:50;3.80;99.90
2459;DHT22;1241;50.920;6.936;2022-12-11T14:19:20;3.90;99.90
2459;DHT22;1241;50.920;6.936;2022-12-11T14:21:55;3.90;99.90
2459;DHT22;1241;50.920;6.936;2022-12-11T14:24:21;3.90;99.90
2459;DHT22;1241;50.920;6.936;2022-12-11T14:26:50;3.90;99.90
2459;DHT22;1241;50.920;6.936;2022-12-11T14:29:31;3.90;99.90
2459;DHT22;1241;50.920;6.936;2022-12-11T14:32:05;3.90;99.90
2459;DHT22;1241;50.920;6.936;2022-12-11T14:34:33;3.90;99.90
2459;DHT22;1241;50.920;6.936;2022-12-11T14:37:02;3.90;99.90
2459;DHT22;1241;50.920;6.936;2022-12-11T14:39:56;3.90;99.90
2459;DHT22;1241;50.920;6.936;2022-12-11T14:42:31;3.90;99.90
2459;DHT22;1241;50.920;6.936;2022-12-11T14:45:18;3.90;99.90
2459;DHT22;1241;50.920;6.936;2022-12-11T14:47:45;3.70;99.90
2459;DHT22;1241;50.920;6.936;2022-12-11T14:50:18;3.60;99.90
2459;DHT22;1241;50.920;6.936;2022-12-11T14:52:50;3.60;99.90
2459;DHT22;1241;50.920;6.936;2022-12-11T14:55:25;3.60;99.90
2459;DHT22;1241;50.920;6.936;2022-12-11T14:57:56;3.50;99.90
2459;DHT22;1241;50.920;6.936;2022-12-11T15:00:34;3.40;99.90
2459;DHT22;1241;50.920;6.936;2022-12-11T15:03:21;3.40;99.90
2459;DHT22;1241;50.920;6.936;2022-12-11T15:05:55;3.50;99.90
2459;DHT22;1241;50.920;6.936;2022-12-11T15:08:30;3.50;99.90
2459;DHT22;1241;50.920;6.936;2022-12-11T15:11:11;3.50;99.90
2459;DHT22;1241;50.920;6.936;2022-12-11T15:13:51;3.60;99.90
2459;DHT22;1241;50.920;6.936;2022-12-11T15:16:18;3.70;99.90
2459;DHT22;1241;50.920;6.936;2022-12-11T15:18:48;3.70;99.90
2459;DHT22;1241;50.920;6.936;2022-12-11T15:21:15;3.80;99.90
2459;DHT22;1241;50.920;6.936;2022-12-11T15:26:12;3.80;99.90
2459;DHT22;1241;50.920;6.936;2022-12-11T15:28:38;3.80;99.90
2459;DHT22;1241;50.920;6.936;2022-12-11T15:31:24;3.80;99.90
2459;DHT22;1241;50.920;6.936;2022-12-11T15:33:50;3.60;99.90
2459;DHT22;1241;50.920;6.936;2022-12-11T15:36:32;3.70;99.90
2459;DHT22;1241;50.920;6.936;2022-12-11T15:38:59;3.60;99.90
2459;DHT22;1241;50.920;6.936;2022-12-11T15:41:25;3.60;99.90
2459;DHT22;1241;50.920;6.936;2022-12-11T15:43:56;3.60;99.90
2459;DHT22;1241;50.920;6.936;2022-12-11T15:46:22;3.60;99.90
2459;DHT22;1241;50.920;6.936;2022-12-11T15:48:49;3.60;99.90
2459;DHT22;1241;50.920;6.936;2022-12-11T15:51:15;3.60;99.90
2459;DHT22;1241;50.920;6.936;2022-12-11T15:53:42;3.50;99.90
2459;DHT22;1241;50.920;6.936;2022-12-11T15:56:12;3.50;99.90
2459;DHT22;1241;50.920;6.936;2022-12-11T15:58:39;3.60;99.90
2459;DHT22;1241;50.920;6.936;2022-12-11T16:01:05;3.60;99.90
2459;DHT22;1241;50.920;6.936;2022-12-11T16:03:31;3.60;99.90
2459;DHT22;1241;50.920;6.936;2022-12-11T16:05:57;3.60;99.90
2459;DHT22;1241;50.920;6.936;2022-12-11T16:08:23;3.60;99.90
2459;DHT22;1241;50.920;6.936;2022-12-11T16:10:52;3.50;99.90
2459;DHT22;1241;50.920;6.936;2022-12-11T16:13:19;3.60;99.90
2459;DHT22;1241;50.920;6.936;2022-12-11T16:15:49;3.60;99.90
2459;DHT22;1241;50.920;6.936;2022-12-11T16:18:19;3.60;99.90
2459;DHT22;1241;50.920;6.936;2022-12-11T16:20:45;3.50;99.90
2459;DHT22;1241;50.920;6.936;2022-12-11T16:23:13;3.60;99.90
2459;DHT22;1241;50.920;6.936;2022-12-11T16:25:40;3.60;99.90
2459;DHT22;1241;50.920;6.936;2022-12-11T16:28:07;3.70;99.90
2459;DHT22;1241;50.920;6.936;2022-12-11T16:30:35;3.70;99.90
2459;DHT22;1241;50.920;6.936;2022-12-11T16:33:02;3.80;99.90
2459;DHT22;1241;50.920;6.936;2022-12-11T16:35:28;3.90;99.90
2459;DHT22;1241;50.920;6.936;2022-12-11T16:37:54;4.10;99.90
2459;DHT22;1241;50.920;6.936;2022-12-11T16:40:20;4.10;99.90
2459;DHT22;1241;50.920;6.936;2022-12-11T16:42:46;3.90;99.90
2459;DHT22;1241;50.920;6.936;2022-12-11T16:45:18;3.80;99.90
2459;DHT22;1241;50.920;6.936;2022-12-11T16:47:44;3.90;99.90
2459;DHT22;1241;50.920;6.936;2022-12-11T16:50:11;4.00;99.90
2459;DHT22;1241;50.920;6.936;2022-12-11T16:52:38;3.90;99.90
2459;DHT22;1241;50.920;6.936;2022-12-11T16:55:04;3.90;99.90
2459;DHT22;1241;50.920;6.936;2022-12-11T16:57:30;3.80;99.90
2459;DHT22;1241;50.920;6.936;2022-12-11T16:59:56;3.90;99.90
2459;DHT22;1241;50.920;6.936;2022-12-11T17:02:22;3.70;99.90
2459;DHT22;1241;50.920;6.936;2022-12-11T17:04:48;3.80;99.90
2459;DHT22;1241;50.920;6.936;2022-12-11T17:07:14;3.80;99.90
2459;DHT22;1241;50.920;6.936;2022-12-11T17:09:40;3.80;99.90
2459;DHT22;1241;50.920;6.936;2022-12-11T17:12:06;3.80;99.90
2459;DHT22;1241;50.920;6.936;2022-12-11T17:14:32;3.80;99.90
2459;DHT22;1241;50.920;6.936;2022-12-11T17:16:58;3.80;99.90
2459;DHT22;1241;50.920;6.936;2022-12-11T17:19:24;3.80;99.90
2459;DHT22;1241;50.920;6.936;2022-12-11T17:21:50;3.80;99.90
2459;DHT22;1241;50.920;6.936;2022-12-11T17:24:19;3.70;99.90
2459;DHT22;1241;50.920;6.936;2022-12-11T17:26:45;3.50;99.90
2459;DHT22;1241;50.920;6.936;2022-12-11T17:29:11;3.50;99.90
2459;DHT22;1241;50.920;6.936;2022-12-11T17:31:37;3.40;99.90
2459;DHT22;1241;50.920;6.936;2022-12-11T17:34:03;3.20;99.90
2459;DHT22;1241;50.920;6.936;2022-12-11T17:36:30;3.10;99.90
2459;DHT22;1241;50.920;6.936;2022-12-11T17:38:55;3.10;99.90
2459;DHT22;1241;50.920;6.936;2022-12-11T17:41:21;3.10;99.90
2459;DHT22;1241;50.920;6.936;2022-12-11T17:43:48;3.10;99.90
2459;DHT22;1241;50.920;6.936;2022-12-11T17:46:15;3.10;99.90
2459;DHT22;1241;50.920;6.936;2022-12-11T17:48:42;3.20;99.90
2459;DHT22;1241;50.920;6.936;2022-12-11T17:51:11;3.20;99.90
2459;DHT22;1241;50.920;6.936;2022-12-11T17:53:37;3.20;99.90
2459;DHT22;1241;50.920;6.936;2022-12-11T17:56:05;3.20;99.90
2459;DHT22;1241;50.920;6.936;2022-12-11T17:58:31;3.10;99.90
2459;DHT22;1241;50.920;6.936;2022-12-11T18:00:58;3.00;99.90
2459;DHT22;1241;50.920;6.936;2022-12-11T18:03:25;3.10;99.90
2459;DHT22;1241;50.920;6.936;2022-12-11T18:05:54;3.10;99.90
2459;DHT22;1241;50.920;6.936;2022-12-11T18:08:23;3.00;99.90